Bella Vista, AR

1:17 AM CDT on July 03, 2015 (GMT -0500)
Wentworth Division | | Change Station
CLOSE
Current Station
Personal Weather Station
Location: Bella Vista, AR
Elevation: 1247 ft
Nearby Weather Stations

Elev 1247 ft 36.45 °N, 94.25 °W | Updated 21 seconds ago

Mostly Cloudy
Mostly Cloudy
68.4 °F
Feels Like 68.4 °F
N
0.0
Wind Variable Wind from WNW
Gusts 0.0 mph

Today
High -- | Low -- °F
--% Chance of Precip.
Yesterday
High -- | Low -- °F
Precip. -- in
6:03 AM 8:38 PM
Full, 98% visible
Pressure 29.93 in
Visibility 10.0 miles
Clouds Clear
Dew Point 68 °F
Humidity 98%
Rainfall 0.00 in
Snow Depth Not available.
UV 0.0 out of 12
Pollen 2.80 out of 12
Air Quality Not available.
Flu Activity Not available.
METAR KVBT 030615Z AUTO 21005KT 10SM CLR 21/17 A2993 RMK AO1

More Conditions Fewer Conditions

Pressure 29.93 in
Visibility 10.0 miles
Clouds Clear
Dew Point 68 °F
Humidity 98%
Rainfall 0.00 in
Snow Depth Not available.
UV 0.0 out of 12
Pollen 2.80 out of 12
Air Quality Not available.
Flu Activity Not available.
METAR KVBT 030615Z AUTO 21005KT 10SM CLR 21/17 A2993 RMK AO1

More Conditions Fewer Conditions

Nowcast | as of 12:57 am CDT on July 3, 2015

at 12:57 am...showers and thunderstorms continued to develop roughly along a line from near lake Eufaula northwest toward Okmulgee and into southern Osage County. Additional showers and thunderstorms from earlier were dissipating in intensity just south of the Interstate 40 corridor. All activity was moving to the east and southeast at 25 mph. Through 2 am...showers and thunderstorms will continue moving across eastern Oklahoma and west central Arkansas. Rainfall amounts will range from a tenth of an inch to upwards of one-half inch in thunderstorms. Gusty winds may also occur with the stronger storms.

×

10-Day Weather Forecast

×

Almanac

Astronomy

Jul. 03, 2015 Rise Set
Actual Time
Civil Twilight
Nautical Twilight
Astronomical Twilight
Moon
Length of Visible Light
Length of Day
Tomorrow will be .
, % of the Moon is Illuminated

Today's Extremes

State Highs State Lows

Community

WunderPhotos

Upload Photos

1,834,634 photos uploaded!

WunderBlogs® & News

Nearby

Air Quality

  Air Quality AQ Index Pollutant
Not available.

Snow Depth

Station Depth Elevation

Earthquake Activity

City Distance Mag. Time & Date
Minimum magnitude displayed is 2.5.

Coastal Water Temperatures

Place Temperature

Stations

Nearby Weather Stations

Station Location Temp. Windchill Dew Point Humidity Wind Precip. Elev Updated Type